Time;durP1;ratioP1;P1;durP2;ratioP2;P2;SDS_P1;SDS_P2;PMS_P1;PMS_P2;Temp;Humidity;BMP_temperature;BMP_pressure;BME280_temperature;BME280_humidity;BME280_pressure;Samples;Min_cycle;Max_cycle;Signal;HPM_P1;HPM_P2
2023/07/28 00:00:42;;;;;;;5.85;2.10;;;;;;;24.42;48.09;98167.56;5134034;27;20048;-47
2023/07/28 00:03:08;;;;;;;5.70;1.77;;;;;;;24.39;48.31;98157.44;5132526;27;20073;-47
2023/07/28 00:05:36;;;;;;;3.60;1.60;;;;;;;24.42;48.33;98163.00;5134054;27;20030;-47
2023/07/28 00:08:02;;;;;;;5.32;2.17;;;;;;;24.33;48.62;98156.78;5132741;27;20019;-47
2023/07/28 00:10:27;;;;;;;5.30;1.50;;;;;;;24.37;48.73;98165.00;5133822;27;20369;-46
2023/07/28 00:12:53;;;;;;;9.75;2.78;;;;;;;24.32;49.15;98182.78;5132557;27;20417;-47
2023/07/28 00:15:19;;;;;;;6.45;2.13;;;;;;;24.38;49.48;98180.00;5133823;27;20469;-47
2023/07/28 00:17:44;;;;;;;4.88;2.00;;;;;;;24.39;49.60;98187.75;5132382;27;20485;-47
2023/07/28 00:20:11;;;;;;;5.28;2.17;;;;;;;24.36;49.61;98199.06;5133543;27;20146;-47
2023/07/28 00:22:37;;;;;;;7.65;1.98;;;;;;;24.36;50.15;98191.03;5133717;27;20019;-47
2023/07/28 00:25:02;;;;;;;8.70;2.30;;;;;;;24.39;49.99;98192.31;5132190;27;20034;-47
2023/07/28 00:27:28;;;;;;;5.88;2.50;;;;;;;24.42;49.79;98202.44;5133628;27;20015;-47
2023/07/28 00:29:54;;;;;;;6.07;3.55;;;;;;;24.36;49.95;98193.72;5133593;27;20030;-47
2023/07/28 00:32:20;;;;;;;4.90;2.15;;;;;;;24.39;50.12;98217.25;5133398;27;20023;-47
2023/07/28 00:34:47;;;;;;;8.30;2.30;;;;;;;24.35;50.36;98218.97;5132129;27;20392;-46
2023/07/28 00:37:12;;;;;;;8.93;2.67;;;;;;;24.23;50.35;98199.94;5132081;27;20018;-47
2023/07/28 00:39:38;;;;;;;7.05;2.80;;;;;;;24.16;51.02;98219.09;5132017;27;20028;-47
2023/07/28 00:42:04;;;;;;;7.22;2.17;;;;;;;24.09;51.44;98222.19;5132301;27;20427;-47
2023/07/28 00:44:30;;;;;;;7.97;2.85;;;;;;;24.16;51.72;98219.09;5131976;27;20023;-47
2023/07/28 00:46:56;;;;;;;4.78;1.80;;;;;;;24.24;51.46;98225.63;5133243;27;20215;-47
2023/07/28 00:49:21;;;;;;;8.85;2.47;;;;;;;24.19;51.88;98213.13;5133232;27;20034;-47
2023/07/28 00:51:49;;;;;;;10.40;2.50;;;;;;;24.21;52.49;98218.22;5133074;27;20031;-47
2023/07/28 00:54:16;;;;;;;4.95;1.83;;;;;;;24.18;52.73;98224.94;5133436;27;20031;-47
2023/07/28 00:56:41;;;;;;;6.63;2.42;;;;;;;24.08;53.22;98252.75;5131714;27;20034;-47
2023/07/28 00:59:07;;;;;;;5.85;2.05;;;;;;;24.07;53.79;98232.41;5131968;27;20396;-47
2023/07/28 01:01:33;;;;;;;7.45;2.35;;;;;;;24.06;54.26;98230.03;5132758;27;20042;-48
2023/07/28 01:03:58;;;;;;;6.03;2.08;;;;;;;23.99;54.88;98232.34;5133277;27;20466;-47
2023/07/28 01:06:33;;;;;;;5.90;2.63;;;;;;;23.83;55.63;98224.59;5131947;27;20023;-47
2023/07/28 01:09:12;;;;;;;8.50;2.90;;;;;;;23.77;56.42;98236.50;5132994;27;20024;-47
2023/07/28 01:11:38;;;;;;;11.77;2.28;;;;;;;23.77;56.87;98233.81;5132843;27;20027;-47
2023/07/28 01:14:03;;;;;;;6.40;2.63;;;;;;;23.80;57.16;98230.53;5131537;27;20023;-47
2023/07/28 01:16:29;;;;;;;7.03;2.38;;;;;;;23.80;57.68;98230.53;5131535;27;20034;-47
2023/07/28 01:18:55;;;;;;;11.48;2.80;;;;;;;23.80;58.26;98238.56;5132767;27;20068;-47
2023/07/28 01:21:26;;;;;;;8.98;2.53;;;;;;;23.86;58.10;98233.91;5131465;27;20458;-47
2023/07/28 01:24:01;;;;;;;6.35;2.58;;;;;;;23.91;58.12;98223.91;5132836;27;20505;-47
2023/07/28 01:26:34;;;;;;;8.20;3.05;;;;;;;23.83;58.55;98229.16;5131766;28;20042;-47
2023/07/28 01:29:01;;;;;;;7.35;2.65;;;;;;;23.79;59.27;98220.94;5133006;27;20042;-47
2023/07/28 01:31:26;;;;;;;7.68;2.63;;;;;;;23.77;59.52;98217.75;5133862;27;20033;-47
2023/07/28 01:33:52;;;;;;;6.18;2.20;;;;;;;23.64;59.87;98222.00;5136966;27;20098;-47
2023/07/28 01:36:18;;;;;;;9.32;2.75;;;;;;;23.69;60.20;98221.88;5135537;27;20031;-47
2023/07/28 01:38:43;;;;;;;8.52;2.25;;;;;;;23.68;60.33;98214.97;5135553;27;20016;-46
2023/07/28 01:41:09;;;;;;;10.68;2.70;;;;;;;23.66;60.47;98219.81;5135758;27;20039;-47
2023/07/28 01:43:35;;;;;;;12.88;2.70;;;;;;;23.64;61.05;98200.56;5135429;27;20030;-47
2023/07/28 01:46:00;;;;;;;6.65;2.60;;;;;;;23.75;60.84;98197.69;5136712;27;20035;-47
2023/07/28 01:48:26;;;;;;;7.78;2.90;;;;;;;23.76;60.98;98201.94;5135361;27;20045;-47
2023/07/28 01:50:55;;;;;;;7.88;2.45;;;;;;;23.77;61.50;98204.34;5136543;27;20031;-47
2023/07/28 01:53:21;;;;;;;9.30;3.45;;;;;;;23.68;61.71;98212.28;5135496;27;20573;-47
2023/07/28 01:55:47;;;;;;;8.50;2.78;;;;;;;23.60;62.16;98202.22;5136450;27;20027;-47
2023/07/28 01:58:12;;;;;;;11.02;3.25;;;;;;;23.57;62.19;98196.69;5136756;27;20023;-47
2023/07/28 02:00:38;;;;;;;10.25;3.30;;;;;;;23.60;62.29;98202.22;5135387;27;20019;-47
2023/07/28 02:03:04;;;;;;;4.68;2.42;;;;;;;23.62;62.11;98200.03;5134888;27;20130;-47
2023/07/28 02:05:30;;;;;;;6.65;2.50;;;;;;;23.62;62.40;98200.03;5135007;27;20027;-47
2023/07/28 02:07:57;;;;;;;7.20;3.08;;;;;;;23.57;62.76;98205.50;5135299;27;20054;-47
2023/07/28 02:10:27;;;;;;;6.82;2.78;;;;;;;23.51;63.29;98190.63;5136503;27;20084;-47
2023/07/28 02:12:52;;;;;;;7.80;3.45;;;;;;;23.47;64.10;98185.06;5135121;27;20092;-47
2023/07/28 02:15:18;;;;;;;8.82;3.25;;;;;;;23.56;64.60;98240.63;5134844;27;20458;-47
2023/07/28 02:17:44;;;;;;;12.00;2.97;;;;;;;23.66;64.62;98203.75;5136092;27;20024;-47
2023/07/28 02:20:15;;;;;;;9.77;3.30;;;;;;;23.86;64.45;98226.66;5136100;27;20114;-47
2023/07/28 02:22:41;;;;;;;11.27;3.22;;;;;;;23.95;64.12;98209.91;5136010;27;20038;-47
2023/07/28 02:25:07;;;;;;;8.50;3.58;;;;;;;23.96;64.08;98220.31;5135938;27;20052;-47
2023/07/28 02:27:33;;;;;;;14.07;3.70;;;;;;;23.86;64.50;98201.75;5135936;27;20338;-46
2023/07/28 02:29:59;;;;;;;6.65;3.28;;;;;;;23.82;64.79;98198.09;5135893;27;20504;-47
2023/07/28 02:32:25;;;;;;;9.95;3.90;;;;;;;23.81;65.05;98199.19;5135768;27;20034;-47
2023/07/28 02:34:51;;;;;;;9.68;3.63;;;;;;;23.79;65.31;98218.25;5134531;27;20036;-47
2023/07/28 02:37:17;;;;;;;8.13;3.85;;;;;;;23.80;65.66;98197.59;5134865;27;20030;-47
2023/07/28 02:39:43;;;;;;;9.18;4.65;;;;;;;23.71;65.59;98178.72;5134397;27;20027;-47
2023/07/28 02:42:08;;;;;;;6.60;4.32;;;;;;;23.59;66.28;98200.66;5134321;27;20034;-47
2023/07/28 02:44:34;;;;;;;7.32;4.55;;;;;;;23.58;66.69;98214.34;5134410;27;20023;-47
2023/07/28 02:47:00;;;;;;;9.68;4.05;;;;;;;23.60;66.47;98178.13;5135543;27;20034;-47
2023/07/28 02:49:26;;;;;;;6.00;3.92;;;;;;;23.64;66.60;98189.03;5135542;27;20430;-47
2023/07/28 02:51:51;;;;;;;10.65;4.60;;;;;;;23.55;67.00;98194.31;5134014;27;20027;-47
2023/07/28 02:54:17;;;;;;;11.05;4.28;;;;;;;23.53;66.99;98196.50;5134122;27;20024;-48
2023/07/28 02:56:43;;;;;;;8.57;4.30;;;;;;;23.46;67.18;98188.03;5135410;27;20024;-47
2023/07/28 02:59:08;;;;;;;8.20;4.45;;;;;;;23.42;67.92;98190.53;5134029;27;20035;-47
2023/07/28 03:01:35;;;;;;;7.38;4.00;;;;;;;23.47;67.53;98186.97;5134766;27;20031;-48
2023/07/28 03:04:03;;;;;;;9.57;3.97;;;;;;;23.51;67.44;98179.91;5135263;27;20042;-47
2023/07/28 03:06:29;;;;;;;13.27;4.50;;;;;;;23.50;67.73;98199.75;5134175;27;20054;-48
2023/07/28 03:08:55;;;;;;;7.97;4.70;;;;;;;23.50;67.69;98197.06;5135172;27;20043;-47
2023/07/28 03:11:20;;;;;;;12.82;3.80;;;;;;;23.58;67.91;98185.66;5133992;27;20138;-47
2023/07/28 03:13:46;;;;;;;9.57;4.53;;;;;;;23.60;67.78;98191.50;5134037;27;20027;-47
2023/07/28 03:16:12;;;;;;;12.95;4.82;;;;;;;23.68;67.68;98200.75;5133956;27;20023;-47
2023/07/28 03:18:38;;;;;;;9.55;4.25;;;;;;;23.71;67.37;98203.63;5133682;27;20047;-47
2023/07/28 03:21:03;;;;;;;8.60;4.55;;;;;;;23.69;67.32;98205.03;5134896;27;20493;-47
2023/07/28 03:23:29;;;;;;;8.65;4.03;;;;;;;23.83;67.18;98207.72;5134870;27;20027;-47
2023/07/28 03:25:55;;;;;;;6.80;3.78;;;;;;;23.81;66.82;98201.88;5134802;27;20462;-47
2023/07/28 03:28:21;;;;;;;8.32;4.65;;;;;;;23.70;67.47;98211.94;5133795;27;20035;-48
2023/07/28 03:30:46;;;;;;;10.75;4.88;;;;;;;23.63;67.92;98206.22;5134577;27;20419;-46
2023/07/28 03:33:12;;;;;;;8.35;4.38;;;;;;;23.67;68.06;98213.34;5134710;27;20388;-47
2023/07/28 03:35:38;;;;;;;9.02;3.85;;;;;;;23.70;67.47;98214.63;5133267;27;20015;-47
2023/07/28 03:38:03;;;;;;;7.93;4.25;;;;;;;23.60;68.03;98209.47;5134540;27;20027;-47
2023/07/28 03:40:29;;;;;;;8.50;4.00;;;;;;;23.55;68.22;98218.41;5134553;27;20564;-47
2023/07/28 03:42:55;;;;;;;27.98;6.70;;;;;;;23.49;68.46;98203.53;5134479;27;20384;-47
2023/07/28 03:45:21;;;;;;;7.78;5.38;;;;;;;23.50;68.50;98207.78;5133391;27;20431;-47
2023/07/28 03:47:46;;;;;;;15.85;5.60;;;;;;;23.49;68.69;98220.38;5133115;27;20606;-47
2023/07/28 03:50:12;;;;;;;11.55;4.78;;;;;;;23.42;68.55;98209.28;5134335;27;20023;-47
2023/07/28 03:52:38;;;;;;;9.75;4.05;;;;;;;23.53;68.46;98223.28;5134103;27;20025;-46
2023/07/28 03:55:04;;;;;;;7.95;4.20;;;;;;;23.57;68.62;98221.59;5133804;27;20019;-47
2023/07/28 03:57:29;;;;;;;10.80;4.30;;;;;;;23.65;68.53;98220.91;5132841;27;20016;-47
2023/07/28 03:59:55;;;;;;;10.82;4.68;;;;;;;23.66;68.08;98225.19;5132826;27;20383;-47
2023/07/28 04:02:21;;;;;;;6.90;4.45;;;;;;;23.56;68.23;98227.25;5132654;27;20122;-47
2023/07/28 04:04:46;;;;;;;11.65;4.25;;;;;;;23.47;68.59;98229.81;5134014;27;20023;-47
2023/07/28 04:07:12;;;;;;;7.82;4.18;;;;;;;23.47;69.10;98243.22;5134024;27;20027;-47
2023/07/28 04:09:38;;;;;;;8.05;3.83;;;;;;;23.50;68.85;98247.97;5133884;27;20027;-47
2023/07/28 04:12:04;;;;;;;9.30;4.50;;;;;;;23.49;68.63;98246.38;5133824;27;20454;-47
2023/07/28 04:14:29;;;;;;;11.43;4.53;;;;;;;23.67;68.41;98247.41;5132561;27;20062;-47
2023/07/28 04:16:55;;;;;;;12.82;4.85;;;;;;;23.80;67.98;98249.28;5132608;27;20024;-47
2023/07/28 04:19:21;;;;;;;12.75;4.53;;;;;;;23.92;67.31;98270.25;5133742;27;20031;-46
2023/07/28 04:21:46;;;;;;;10.18;4.60;;;;;;;23.90;67.13;98248.31;5133888;27;20031;-47
2023/07/28 04:24:12;;;;;;;7.00;3.95;;;;;;;23.83;67.40;98253.28;5132336;27;20540;-47
2023/07/28 04:26:38;;;;;;;14.65;4.45;;;;;;;23.82;67.42;98251.69;5133628;27;20397;-47
2023/07/28 04:29:03;;;;;;;17.10;4.97;;;;;;;23.87;67.31;98249.69;5133833;27;20116;-47
2023/07/28 04:31:29;;;;;;;7.65;4.25;;;;;;;23.83;67.25;98239.88;5133466;27;20399;-47
2023/07/28 04:33:55;;;;;;;11.82;3.80;;;;;;;23.77;67.60;98249.91;5132189;27;20108;-47
2023/07/28 04:36:21;;;;;;;13.68;4.53;;;;;;;23.68;67.98;98241.75;5132402;27;20035;-47
2023/07/28 04:38:46;;;;;;;10.13;4.05;;;;;;;23.71;67.77;98238.47;5132323;27;20373;-47
2023/07/28 04:41:12;;;;;;;20.88;10.95;;;;;;;23.65;68.00;98247.69;5133429;27;20042;-47
2023/07/28 04:43:38;;;;;;;18.70;9.15;;;;;;;23.58;68.43;98252.63;5133248;27;20023;-47
2023/07/28 04:46:03;;;;;;;9.25;5.00;;;;;;;23.58;68.57;98252.63;5133290;27;20019;-47
2023/07/28 04:48:29;;;;;;;7.32;3.75;;;;;;;23.66;68.60;98251.16;5132248;27;20027;-47
2023/07/28 04:50:55;;;;;;;10.05;3.85;;;;;;;23.66;68.55;98259.19;5131809;27;20077;-47
2023/07/28 04:53:21;;;;;;;7.30;4.25;;;;;;;23.65;68.74;98252.25;5131802;27;20030;-46
2023/07/28 04:55:46;;;;;;;8.43;4.22;;;;;;;23.75;68.73;98257.41;5133084;27;20633;-47
2023/07/28 04:58:12;;;;;;;7.30;3.58;;;;;;;23.99;67.53;98254.56;5133046;27;20477;-47
2023/07/28 05:00:38;;;;;;;9.32;4.03;;;;;;;23.87;67.68;98259.63;5131708;27;20117;-47
2023/07/28 05:03:03;;;;;;;9.98;4.25;;;;;;;23.74;68.20;98258.50;5131455;27;20039;-47
2023/07/28 05:05:29;;;;;;;9.98;3.95;;;;;;;23.93;68.16;98258.44;5132043;27;20023;-47
2023/07/28 05:07:55;;;;;;;12.13;4.25;;;;;;;24.14;67.04;98264.19;5132937;27;20037;-47
2023/07/28 05:10:21;;;;;;;9.90;3.95;;;;;;;24.21;66.65;98253.84;5132917;27;20015;-47
2023/07/28 05:12:46;;;;;;;14.07;4.10;;;;;;;24.18;66.81;98264.38;5131569;27;20102;-47
2023/07/28 05:15:15;;;;;;;13.07;4.03;;;;;;;24.48;66.55;98269.09;5132909;27;20060;-47
2023/07/28 05:17:40;;;;;;;12.88;4.32;;;;;;;24.81;65.06;98265.44;5132893;27;20035;-47
2023/07/28 05:20:06;;;;;;;12.40;4.60;;;;;;;25.15;63.68;98262.19;5131510;27;20076;-47
2023/07/28 05:22:32;;;;;;;14.73;4.85;;;;;;;25.37;63.03;98266.78;5131429;27;20510;-47
2023/07/28 05:24:58;;;;;;;22.80;4.45;;;;;;;25.61;61.82;98279.84;5132838;27;20094;-47
2023/07/28 05:27:24;;;;;;;22.02;5.00;;;;;;;25.64;61.58;98281.94;5132656;28;20442;-47
2023/07/28 05:29:49;;;;;;;16.38;4.32;;;;;;;26.58;59.83;98280.97;5132713;28;20015;-47
2023/07/28 05:32:15;;;;;;;20.48;4.43;;;;;;;27.93;55.53;98279.81;5132548;27;20027;-47
2023/07/28 05:34:44;;;;;;;25.80;4.82;;;;;;;28.61;53.28;98277.00;5132880;27;20031;-47
2023/07/28 05:37:10;;;;;;;17.60;9.50;;;;;;;28.11;53.23;98280.50;5131321;28;20460;-47
2023/07/28 05:39:36;;;;;;;20.65;4.57;;;;;;;27.28;54.98;98293.28;5131483;28;20585;-47
2023/07/28 05:42:02;;;;;;;24.00;5.55;;;;;;;26.82;56.33;98292.06;5131295;28;20039;-47
2023/07/28 05:44:28;;;;;;;11.48;4.03;;;;;;;26.69;57.68;98287.63;5132573;27;20019;-47
2023/07/28 05:46:54;;;;;;;8.40;3.58;;;;;;;27.42;56.23;98289.63;5132610;27;20034;-47
2023/07/28 05:49:20;;;;;;;15.30;4.10;;;;;;;29.17;51.50;98281.31;5132529;27;20019;-47
2023/07/28 05:52:15;;;;;;;13.00;3.80;;;;;;;30.81;47.27;98287.66;5131128;28;20031;-47
2023/07/28 05:54:41;;;;;;;;;;;;;;;31.83;45.27;98281.78;5132869;28;20028;-47
2023/07/28 05:58:11;;;;;;;12.68;3.58;;;;;;;32.35;42.15;98277.97;5132495;27;19917;-47
2023/07/28 06:01:13;;;;;;;20.83;4.28;;;;;;;33.51;40.95;98289.19;5127786;27;20027;-47
2023/07/28 06:04:11;;;;;;;11.75;3.50;;;;;;;34.27;39.00;98275.63;5131180;27;20058;-47
2023/07/28 06:07:12;;;;;;;8.15;3.20;;;;;;;35.21;37.03;98296.63;5132370;27;20144;-47
2023/07/28 06:09:37;;;;;;;11.27;3.45;;;;;;;35.48;34.69;98286.38;5132560;27;20556;-46
2023/07/28 06:12:03;;;;;;;7.82;3.13;;;;;;;35.42;34.36;98287.88;5130943;28;20030;-47
2023/07/28 06:14:53;;;;;;;9.98;3.53;;;;;;;36.05;33.75;98304.38;5113933;28;20027;-47
2023/07/28 06:17:29;;;;;;;9.02;2.55;;;;;;;36.64;32.87;98307.09;5133041;27;20015;-47
2023/07/28 06:19:55;;;;;;;5.95;2.45;;;;;;;37.05;31.51;98296.69;5134829;27;20051;-47
2023/07/28 06:22:21;;;;;;;12.90;3.20;;;;;;;37.55;30.91;98293.25;5134775;27;20107;-47
2023/07/28 06:24:46;;;;;;;8.77;2.78;;;;;;;37.82;29.42;98298.38;5134711;27;20035;-47
2023/07/28 06:27:12;;;;;;;14.98;3.13;;;;;;;37.70;29.78;98303.06;5136047;27;20055;-47
2023/07/28 06:29:38;;;;;;;19.63;3.67;;;;;;;37.88;29.67;98299.56;5136012;27;20015;-47
2023/07/28 06:32:04;;;;;;;7.60;2.63;;;;;;;38.28;28.92;98289.34;5135825;27;20423;-48
2023/07/28 06:34:29;;;;;;;9.05;2.72;;;;;;;38.74;28.28;98297.41;5135862;27;20031;-47
2023/07/28 06:36:55;;;;;;;10.98;3.38;;;;;;;38.94;28.29;98305.16;5134527;27;20015;-47
2023/07/28 06:39:21;;;;;;;13.48;3.38;;;;;;;39.07;27.77;98305.50;5135802;27;20031;-47
2023/07/28 06:41:46;;;;;;;24.92;3.90;;;;;;;39.23;27.91;98305.78;5134436;27;20496;-47
2023/07/28 06:44:12;;;;;;;17.30;3.40;;;;;;;39.43;27.42;98313.53;5134321;27;20057;-47
2023/07/28 06:46:38;;;;;;;16.15;3.30;;;;;;;39.54;26.93;98315.03;5135650;27;20109;-47
2023/07/28 06:49:03;;;;;;;10.27;2.33;;;;;;;39.84;26.22;98318.28;5135569;27;20105;-47
2023/07/28 06:51:29;;;;;;;4.25;2.30;;;;;;;39.96;25.84;98317.81;5135443;27;20019;-47
2023/07/28 06:53:55;;;;;;;6.43;2.50;;;;;;;40.09;25.71;98320.84;5135347;27;20019;-47
2023/07/28 06:56:20;;;;;;;12.68;3.40;;;;;;;40.19;26.05;98317.22;5134137;27;20025;-47
2023/07/28 06:58:46;;;;;;;5.45;2.22;;;;;;;40.01;25.62;98327.59;5135436;27;20030;-48
2023/07/28 07:01:12;;;;;;;7.50;2.35;;;;;;;39.82;25.97;98324.19;5134038;27;20031;-48
2023/07/28 07:03:37;;;;;;;16.45;3.15;;;;;;;39.95;26.05;98324.50;5133876;27;20051;-48
2023/07/28 07:06:03;;;;;;;12.75;2.83;;;;;;;39.55;26.27;98321.28;5133918;27;20023;-47
2023/07/28 07:08:29;;;;;;;9.23;2.53;;;;;;;39.67;26.34;98333.75;5133940;27;20062;-47
2023/07/28 07:10:55;;;;;;;6.05;2.50;;;;;;;40.02;25.91;98334.66;5133714;27;20034;-47
2023/07/28 07:13:20;;;;;;;8.60;2.80;;;;;;;40.38;25.64;98324.09;5135077;27;20023;-47
2023/07/28 07:15:46;;;;;;;5.88;2.60;;;;;;;40.53;25.21;98319.22;5135107;27;20023;-47
2023/07/28 07:18:12;;;;;;;11.48;2.83;;;;;;;40.54;25.52;98318.78;5133693;27;20027;-47
2023/07/28 07:20:38;;;;;;;4.35;2.25;;;;;;;40.82;24.86;98330.69;5134952;27;20102;-47
2023/07/28 07:23:04;;;;;;;8.98;4.10;;;;;;;40.22;25.48;98323.84;5133640;27;20114;-47
2023/07/28 07:25:30;;;;;;;17.98;10.35;;;;;;;39.70;26.26;98322.75;5135158;27;20026;-47
2023/07/28 07:27:56;;;;;;;9.80;5.68;;;;;;;39.07;26.99;98325.47;5132677;27;20055;-47
2023/07/28 07:30:22;;;;;;;4.88;3.10;;;;;;;38.77;27.37;98320.50;5133425;27;20051;-47
2023/07/28 07:32:48;;;;;;;13.40;3.47;;;;;;;38.66;27.27;98319.78;5134977;27;20022;-47
2023/07/28 07:35:14;;;;;;;4.57;2.25;;;;;;;38.15;27.97;98324.59;5133701;27;20023;-47
2023/07/28 07:37:43;;;;;;;10.88;3.00;;;;;;;37.44;28.89;98323.38;5134681;27;20362;-47
2023/07/28 07:40:09;;;;;;;7.13;2.58;;;;;;;37.02;29.49;98333.03;5134649;27;20027;-47
2023/07/28 07:42:44;;;;;;;6.45;2.35;;;;;;;36.68;30.55;98325.06;5134544;27;20400;-48
2023/07/28 07:45:11;;;;;;;5.90;2.20;;;;;;;36.70;30.58;98341.09;5134450;27;20053;-47
2023/07/28 07:47:37;;;;;;;4.70;2.40;;;;;;;36.55;30.27;98335.53;5134739;27;20019;-47
2023/07/28 07:50:03;;;;;;;5.97;2.40;;;;;;;36.58;30.80;98339.47;5134343;27;20370;-47
2023/07/28 07:52:28;;;;;;;7.03;2.70;;;;;;;36.80;29.93;98332.16;5132932;27;20020;-47
2023/07/28 07:54:54;;;;;;;5.32;2.38;;;;;;;37.40;30.13;98332.75;5134351;27;20506;-47
2023/07/28 07:57:19;;;;;;;9.70;2.65;;;;;;;38.26;28.75;98325.34;5134278;27;20022;-47
2023/07/28 07:59:45;;;;;;;12.43;2.97;;;;;;;38.20;27.90;98332.41;5132851;27;20035;-47
2023/07/28 08:02:11;;;;;;;5.05;2.30;;;;;;;38.15;27.59;98322.66;5133619;27;20454;-48
2023/07/28 08:04:36;;;;;;;5.50;2.42;;;;;;;37.73;27.88;98326.16;5134190;27;20023;-47
2023/07/28 08:07:04;;;;;;;4.15;2.45;;;;;;;37.65;28.19;98332.81;5134038;27;20027;-47
2023/07/28 08:09:34;;;;;;;3.97;2.30;;;;;;;37.82;28.20;98328.53;5134121;27;20030;-47
2023/07/28 08:12:00;;;;;;;5.50;1.80;;;;;;;37.95;27.44;98325.00;5133858;27;20023;-47
2023/07/28 08:14:26;;;;;;;4.68;2.88;;;;;;;37.90;28.05;98332.81;5133949;27;20450;-47
2023/07/28 08:16:51;;;;;;;5.65;2.47;;;;;;;37.80;28.13;98328.91;5133743;27;20023;-48
2023/07/28 08:19:22;;;;;;;8.05;2.33;;;;;;;37.88;27.99;98333.19;5132543;27;20024;-47
2023/07/28 08:21:48;;;;;;;7.57;2.65;;;;;;;38.20;27.24;98329.69;5132406;27;20482;-47
2023/07/28 08:24:14;;;;;;;10.80;2.67;;;;;;;37.95;27.26;98340.63;5133681;27;20023;-47
2023/07/28 08:26:39;;;;;;;3.75;2.22;;;;;;;37.14;28.49;98340.91;5133605;27;20120;-47
2023/07/28 08:29:08;;;;;;;4.60;2.20;;;;;;;37.65;28.27;98327.31;5132333;27;20023;-47
2023/07/28 08:31:34;;;;;;;101.38;85.05;;;;;;;39.17;26.87;98325.84;5133540;27;20484;-47
2023/07/28 08:33:59;;;;;;;6.53;5.18;;;;;;;40.26;25.37;98328.13;5133521;27;20054;-47
2023/07/28 08:36:25;;;;;;;8.32;3.42;;;;;;;40.64;24.71;98333.63;5133469;27;20033;-48
2023/07/28 08:38:51;;;;;;;15.80;5.53;;;;;;;40.48;24.65;98338.91;5133472;27;20027;-48
2023/07/28 08:41:16;;;;;;;8.55;3.08;;;;;;;39.78;24.97;98330.91;5133302;27;20056;-48
2023/07/28 08:43:43;;;;;;;15.63;4.32;;;;;;;38.47;26.77;98338.22;5133426;27;20101;-47
2023/07/28 08:46:08;;;;;;;34.67;5.35;;;;;;;37.82;27.28;98350.44;5132015;27;20031;-47
2023/07/28 08:48:34;;;;;;;3.65;2.08;;;;;;;37.53;27.83;98351.16;5133233;27;20092;-48
2023/07/28 08:51:00;;;;;;;9.30;2.17;;;;;;;37.65;27.67;98360.19;5114712;27;20027;-47
2023/07/28 08:53:25;;;;;;;16.52;3.10;;;;;;;38.14;26.88;98355.91;5131892;27;20023;-47
2023/07/28 08:55:51;;;;;;;9.80;2.60;;;;;;;39.21;25.93;98345.81;5133161;27;20586;-48
2023/07/28 08:58:20;;;;;;;3.90;2.70;;;;;;;40.04;24.73;98349.53;5133076;27;20060;-48
2023/07/28 09:00:50;;;;;;;12.88;4.50;;;;;;;40.52;24.84;98339.66;5133017;27;20023;-48
2023/07/28 09:03:17;;;;;;;5.63;2.40;;;;;;;41.03;23.00;98331.56;5132928;27;20058;-48
2023/07/28 09:05:44;;;;;;;9.20;2.67;;;;;;;41.10;22.79;98332.25;5133000;27;20062;-48
2023/07/28 09:08:10;;;;;;;4.57;2.60;;;;;;;41.05;23.04;98335.50;5131685;27;20497;-48
2023/07/28 09:10:42;;;;;;;4.82;2.45;;;;;;;40.86;23.40;98338.88;5133165;27;20019;-48
2023/07/28 09:13:12;;;;;;;6.70;3.70;;;;;;;40.67;23.48;98335.56;5131596;27;20023;-48
2023/07/28 09:15:39;;;;;;;12.35;4.75;;;;;;;40.72;23.29;98343.34;5132851;27;20031;-48
2023/07/28 09:18:08;;;;;;;5.10;2.15;;;;;;;40.80;22.59;98335.03;5132869;27;20028;-48
2023/07/28 09:20:35;;;;;;;7.72;2.10;;;;;;;41.13;22.86;98333.41;5132799;27;20018;-48
2023/07/28 09:23:02;;;;;;;20.20;4.60;;;;;;;42.09;21.91;98336.66;5132798;27;20084;-48
2023/07/28 09:25:29;;;;;;;8.43;2.72;;;;;;;42.73;20.73;98322.88;5132789;27;20015;-48
2023/07/28 09:27:55;;;;;;;4.63;2.40;;;;;;;42.67;21.03;98324.56;5131457;27;20492;-47
2023/07/28 09:30:23;;;;;;;8.80;2.53;;;;;;;42.90;20.68;98329.22;5132931;27;20068;-48
2023/07/28 09:32:51;;;;;;;3.55;2.03;;;;;;;43.54;20.49;98320.69;5132629;27;20050;-48
2023/07/28 09:35:18;;;;;;;3.90;2.17;;;;;;;44.19;19.47;98317.91;5132676;27;20023;-48
2023/07/28 09:37:47;;;;;;;3.88;1.88;;;;;;;44.68;19.16;98319.72;5132960;27;20035;-48
2023/07/28 09:40:18;;;;;;;3.05;2.03;;;;;;;45.41;18.46;98319.09;5132673;27;20521;-49
2023/07/28 09:42:49;;;;;;;4.63;1.98;;;;;;;45.39;18.42;98316.00;5131343;28;20408;-50
2023/07/28 09:45:16;;;;;;;4.65;2.40;;;;;;;44.10;19.11;98317.75;5132650;27;20024;-50
2023/07/28 09:47:45;;;;;;;2.85;2.22;;;;;;;42.26;20.18;98317.44;5132606;27;20023;-49
2023/07/28 09:50:14;;;;;;;3.90;2.03;;;;;;;41.37;21.90;98316.97;5132552;27;20022;-49
2023/07/28 09:52:45;;;;;;;6.63;2.20;;;;;;;42.08;21.66;98315.06;5134096;27;20065;-49
2023/07/28 09:55:13;;;;;;;4.45;2.08;;;;;;;43.52;20.03;98306.53;5136717;27;20023;-49
2023/07/28 09:57:53;;;;;;;8.38;2.72;;;;;;;44.12;19.49;98314.53;5136900;27;20027;-50
2023/07/28 10:00:20;;;;;;;3.63;1.98;;;;;;;43.33;19.96;98311.72;5135335;27;20118;-50
2023/07/28 10:02:46;;;;;;;5.10;2.28;;;;;;;42.94;20.13;98315.34;5136294;27;20038;-50
2023/07/28 10:05:12;;;;;;;3.97;1.90;;;;;;;42.16;20.60;98318.44;5136450;27;20023;-50
2023/07/28 10:07:43;;;;;;;3.50;2.05;;;;;;;41.45;21.25;98310.16;5136449;27;20484;-50
2023/07/28 10:10:12;;;;;;;9.23;2.10;;;;;;;41.06;21.67;98319.75;5135022;27;20066;-50
2023/07/28 10:12:52;;;;;;;5.78;2.33;;;;;;;41.89;20.43;98316.53;5136213;27;20023;-50
2023/07/28 10:15:20;;;;;;;3.30;1.73;;;;;;;41.96;20.03;98310.09;5136236;27;20023;-50
2023/07/28 10:18:00;;;;;;;3.83;1.75;;;;;;;41.74;20.20;98310.50;5134884;27;20022;-50
2023/07/28 10:20:39;;;;;;;5.78;2.20;;;;;;;41.99;19.73;98303.75;5134863;27;20031;-49
2023/07/28 10:23:25;;;;;;;4.22;1.58;;;;;;;43.13;19.35;98302.72;5136167;27;20552;-50
2023/07/28 10:26:01;;;;;;;7.00;2.38;;;;;;;43.65;18.92;98301.88;5135817;27;20071;-50
2023/07/28 10:28:34;;;;;;;10.20;2.15;;;;;;;43.28;18.86;98290.13;5135982;27;20019;-50
2023/07/28 10:31:01;;;;;;;2.67;1.80;;;;;;;41.96;19.17;98294.34;5135974;27;20030;-50
2023/07/28 10:33:31;;;;;;;4.10;2.20;;;;;;;40.60;20.76;98301.84;5135898;27;20110;-50
2023/07/28 10:36:10;;;;;;;3.95;2.03;;;;;;;39.77;21.84;98304.63;5135879;27;20039;-50
2023/07/28 10:38:37;;;;;;;9.65;2.25;;;;;;;39.53;21.84;98299.72;5135911;27;20031;-50
2023/07/28 10:41:20;;;;;;;6.95;2.10;;;;;;;39.12;22.54;98292.13;5135646;27;20027;-49
2023/07/28 10:43:46;;;;;;;4.63;1.90;;;;;;;38.34;24.05;98302.22;5135796;27;20035;-50
2023/07/28 10:46:16;;;;;;;2.92;2.22;;;;;;;37.81;24.60;98311.28;5135645;27;20077;-49
2023/07/28 10:48:43;;;;;;;3.95;2.28;;;;;;;37.73;24.25;98312.47;5135676;27;20580;-49
2023/07/28 10:51:11;;;;;;;8.50;2.42;;;;;;;38.25;23.45;98312.03;5135465;27;20030;-49
2023/07/28 10:53:37;;;;;;;4.25;2.25;;;;;;;38.59;22.59;98306.88;5135435;27;20559;-50
2023/07/28 10:56:04;;;;;;;3.28;1.80;;;;;;;38.85;22.82;98308.31;5134138;27;20385;-49
2023/07/28 10:58:32;;;;;;;11.20;2.63;;;;;;;40.26;21.56;98306.13;5135424;27;20011;-49
2023/07/28 11:00:58;;;;;;;5.32;2.25;;;;;;;40.38;20.45;98301.31;5117027;27;20055;-50
2023/07/28 11:03:23;;;;;;;4.20;2.20;;;;;;;39.64;21.09;98309.81;5132368;27;20073;-49
2023/07/28 11:05:50;;;;;;;3.67;1.92;;;;;;;38.46;22.78;98309.25;5135472;27;20023;-49
2023/07/28 11:08:16;;;;;;;5.10;2.47;;;;;;;38.09;23.19;98315.19;5135242;27;20055;-50
2023/07/28 11:10:42;;;;;;;5.25;2.05;;;;;;;38.25;23.14;98315.56;5116690;27;20071;-48
2023/07/28 11:13:08;;;;;;;7.50;2.65;;;;;;;38.50;22.62;98310.00;5135317;27;20429;-48
2023/07/28 11:15:33;;;;;;;2.92;1.90;;;;;;;38.27;21.73;98321.41;5135150;27;20549;-48
2023/07/28 11:17:59;;;;;;;2.85;1.90;;;;;;;38.19;22.55;98319.09;5133721;27;20054;-47
2023/07/28 11:20:31;;;;;;;5.00;2.05;;;;;;;37.73;23.82;98326.94;5134965;27;20023;-48
2023/07/28 11:22:59;;;;;;;2.90;2.05;;;;;;;38.26;23.17;98313.63;5134941;27;20031;-47
2023/07/28 11:25:27;;;;;;;5.13;2.13;;;;;;;39.24;21.83;98312.06;5134876;27;20505;-48
2023/07/28 11:27:56;;;;;;;6.47;2.42;;;;;;;39.63;21.58;98309.06;5135121;27;20385;-48
2023/07/28 11:30:23;;;;;;;3.25;1.95;;;;;;;39.75;21.23;98296.78;5133472;27;20031;-48
2023/07/28 11:32:53;;;;;;;3.42;1.92;;;;;;;39.58;21.22;98297.72;5134741;27;20507;-48